createdAt,value
2018-05-21T00:00:46.542Z,102152.75
2018-05-21T00:01:50.758Z,102144.73
2018-05-21T00:02:54.894Z,102148.81
2018-05-21T00:04:00.324Z,102144.26
2018-05-21T00:05:05.256Z,102144.17
2018-05-21T00:06:09.466Z,102146.22
2018-05-21T00:07:13.712Z,102146.87
2018-05-21T00:08:17.846Z,102148.84
2018-05-21T00:09:22.028Z,102145.84
2018-05-21T00:10:26.227Z,102146.31
2018-05-21T00:11:30.656Z,102146.89
2018-05-21T00:12:35.084Z,102145.58
2018-05-21T00:13:39.286Z,102147.36
2018-05-21T00:14:43.437Z,102143.36
2018-05-21T00:15:47.693Z,102142.98
2018-05-21T00:16:51.900Z,102145.33
2018-05-21T00:17:56.016Z,102139.61
2018-05-21T00:19:01.370Z,102145.02
2018-05-21T00:20:06.244Z,102144.22
2018-05-21T00:21:10.492Z,102142.50
2018-05-21T00:22:14.593Z,102141.00
2018-05-21T00:23:18.722Z,102134.67
2018-05-21T00:24:22.837Z,102136.49
2018-05-21T00:25:27.367Z,102135.05
2018-05-21T00:26:31.490Z,102136.00
2018-05-21T00:27:35.583Z,102138.27
2018-05-21T00:28:39.776Z,102129.25
2018-05-21T00:29:43.904Z,102131.13
2018-05-21T00:30:48.364Z,102133.45
2018-05-21T00:31:52.471Z,102135.31
2018-05-21T00:32:57.799Z,102132.33
2018-05-21T00:34:02.552Z,102126.23
2018-05-21T00:35:06.872Z,102136.16
2018-05-21T00:36:10.966Z,102130.78
2018-05-21T00:37:15.089Z,102133.50
2018-05-21T00:38:19.491Z,102138.41
2018-05-21T00:39:23.610Z,102136.17
2018-05-21T00:40:27.818Z,102136.66
2018-05-21T00:41:31.928Z,102133.59
2018-05-21T00:42:36.032Z,102134.08
2018-05-21T00:43:40.221Z,102137.22
2018-05-21T00:44:44.742Z,102138.11
2018-05-21T00:45:49.174Z,102141.66
2018-05-21T00:46:53.996Z,102141.64
2018-05-21T00:47:58.113Z,102129.61
2018-05-21T00:49:02.237Z,102141.28
2018-05-21T00:50:06.676Z,102141.23
2018-05-21T00:51:11.134Z,102135.14
2018-05-21T00:52:15.543Z,102129.54
2018-05-21T00:53:19.632Z,102135.20
2018-05-21T00:54:23.753Z,102136.45
2018-05-21T00:55:38.185Z,102127.47
2018-05-21T00:56:42.696Z,102136.62
2018-05-21T00:57:46.852Z,102136.13
2018-05-21T00:58:50.969Z,102135.69
2018-05-21T00:59:55.074Z,102129.09
2018-05-21T01:01:00.181Z,102134.95
2018-05-21T01:02:05.360Z,102132.19
2018-05-21T01:03:09.805Z,102137.11
2018-05-21T01:04:13.939Z,102137.83
2018-05-21T01:05:18.036Z,102143.13
2018-05-21T01:06:22.244Z,102143.58
2018-05-21T01:07:26.408Z,102141.00
2018-05-21T01:08:30.509Z,102137.17
2018-05-21T01:09:34.657Z,102135.13
2018-05-21T01:10:38.776Z,102143.31
2018-05-21T01:11:42.950Z,102137.55
2018-05-21T01:12:47.088Z,102140.71
2018-05-21T01:13:51.216Z,102139.50
2018-05-21T01:14:55.712Z,102137.02
2018-05-21T01:16:00.042Z,102129.47
2018-05-21T01:17:04.209Z,102132.20
2018-05-21T01:18:08.638Z,102140.20
2018-05-21T01:19:12.816Z,102138.02
2018-05-21T01:20:17.236Z,102136.30
2018-05-21T01:21:21.391Z,102138.59
2018-05-21T01:22:25.500Z,102134.14
2018-05-21T01:23:29.756Z,102134.52
2018-05-21T01:24:33.915Z,102132.27
2018-05-21T01:25:38.000Z,102135.46
2018-05-21T01:26:42.437Z,102133.68
2018-05-21T01:27:46.565Z,102137.77
2018-05-21T01:28:50.772Z,102133.27
2018-05-21T01:29:55.582Z,102127.87
2018-05-21T01:31:00.727Z,102132.50
2018-05-21T01:32:05.179Z,102128.11
2018-05-21T01:33:09.305Z,102132.08
2018-05-21T01:34:13.427Z,102129.04
2018-05-21T01:35:17.540Z,102127.31
2018-05-21T01:36:21.746Z,102134.29
2018-05-21T01:37:25.833Z,102133.19
2018-05-21T01:38:30.226Z,102138.57
2018-05-21T01:39:34.407Z,102132.74
2018-05-21T01:40:38.508Z,102130.16
2018-05-21T01:41:42.744Z,102131.58
2018-05-21T01:42:46.837Z,102134.24
2018-05-21T01:43:50.948Z,102139.05
2018-05-21T01:44:55.448Z,102129.52
2018-05-21T01:46:00.017Z,102123.21
2018-05-21T01:47:04.900Z,102118.52
2018-05-21T01:48:09.037Z,102124.20
2018-05-21T01:49:13.140Z,102126.64
2018-05-21T01:50:17.307Z,102130.30
2018-05-21T01:51:21.715Z,102125.78
2018-05-21T01:52:25.832Z,102131.98
2018-05-21T01:53:29.928Z,102130.64
2018-05-21T01:54:34.127Z,102129.31
2018-05-21T01:55:38.318Z,102123.52
2018-05-21T01:56:42.498Z,102121.38
2018-05-21T01:57:46.619Z,102121.01
2018-05-21T01:58:50.743Z,102125.02
2018-05-21T01:59:54.940Z,102125.49
2018-05-21T02:01:00.378Z,102125.97
2018-05-21T02:02:04.721Z,102118.38
2018-05-21T02:03:08.856Z,102121.02
2018-05-21T02:04:13.288Z,102116.45
2018-05-21T02:05:17.496Z,102112.50
2018-05-21T02:06:21.653Z,102112.57
2018-05-21T02:07:25.790Z,102116.59
2018-05-21T02:08:29.987Z,102113.41
2018-05-21T02:09:34.435Z,102113.87
2018-05-21T02:10:38.553Z,102111.22
2018-05-21T02:11:42.654Z,102108.69
2018-05-21T02:12:46.781Z,102106.64
2018-05-21T02:13:51.040Z,102108.08
2018-05-21T02:14:55.262Z,102108.12
2018-05-21T02:16:00.939Z,102109.75
2018-05-21T02:17:05.984Z,102107.02
2018-05-21T02:18:10.110Z,102112.47
2018-05-21T02:19:14.319Z,102108.75
2018-05-21T02:20:18.494Z,102115.08
2018-05-21T02:21:22.600Z,102106.99
2018-05-21T02:22:26.779Z,102106.55
2018-05-21T02:23:30.896Z,102103.52
2018-05-21T02:24:34.996Z,102102.58
2018-05-21T02:25:48.102Z,102108.26
2018-05-21T02:26:52.614Z,102104.30
2018-05-21T02:27:57.179Z,102105.69
2018-05-21T02:29:03.069Z,102101.71
2018-05-21T02:30:07.390Z,102104.31
2018-05-21T02:31:11.977Z,102093.75
2018-05-21T02:32:16.097Z,102102.22
2018-05-21T02:33:20.813Z,102095.52
2018-05-21T02:34:25.366Z,102099.96
2018-05-21T02:35:30.504Z,102098.73
2018-05-21T02:36:34.960Z,102095.52
2018-05-21T02:37:39.414Z,102093.30
2018-05-21T02:38:43.634Z,102099.38
2018-05-21T02:39:49.722Z,102099.83
2018-05-21T02:40:54.034Z,102091.33
2018-05-21T02:41:59.123Z,102086.09
2018-05-21T02:43:04.340Z,102091.45
2018-05-21T02:44:08.455Z,102094.68
2018-05-21T02:45:14.338Z,102082.67
2018-05-21T02:46:18.773Z,102087.23
2018-05-21T02:47:22.960Z,102086.42
2018-05-21T02:48:31.025Z,102086.88
2018-05-21T02:49:35.227Z,102089.47
2018-05-21T02:50:42.094Z,102083.17
2018-05-21T02:51:56.325Z,102084.20
2018-05-21T02:53:01.118Z,102082.88
2018-05-21T02:54:06.436Z,102082.05
2018-05-21T02:55:10.677Z,102087.42
2018-05-21T02:56:14.809Z,102084.30
2018-05-21T02:57:18.913Z,102079.34
2018-05-21T02:58:23.014Z,102081.83
2018-05-21T02:59:27.136Z,102079.59
2018-05-21T03:00:32.405Z,102079.58
2018-05-21T03:01:36.529Z,102079.25
2018-05-21T03:02:41.958Z,102077.53
2018-05-21T03:03:46.186Z,102076.33
2018-05-21T03:04:50.370Z,102072.75
2018-05-21T03:05:56.195Z,102075.03
2018-05-21T03:07:01.441Z,102073.08
2018-05-21T03:08:05.801Z,102069.48
2018-05-21T03:09:10.391Z,102071.33
2018-05-21T03:10:14.582Z,102073.48
2018-05-21T03:11:18.764Z,102072.15
2018-05-21T03:12:22.883Z,102069.94
2018-05-21T03:13:28.295Z,102067.79
2018-05-21T03:14:32.516Z,102069.19
2018-05-21T03:15:36.919Z,102069.67
2018-05-21T03:16:41.354Z,102073.66
2018-05-21T03:17:45.549Z,102070.55
2018-05-21T03:18:54.357Z,102066.09
2018-05-21T03:19:59.301Z,102064.28
2018-05-21T03:21:03.719Z,102061.98
2018-05-21T03:22:07.900Z,102064.24
2018-05-21T03:23:12.008Z,102068.29
2018-05-21T03:24:16.422Z,102068.33
2018-05-21T03:25:20.497Z,102067.48
2018-05-21T03:26:24.682Z,102073.73
2018-05-21T03:27:28.780Z,102068.39
2018-05-21T03:28:32.954Z,102072.38
2018-05-21T03:29:37.147Z,102067.02
2018-05-21T03:30:42.201Z,102063.80
2018-05-21T03:31:46.324Z,102065.09
2018-05-21T03:32:50.591Z,102072.69
2018-05-21T03:33:54.896Z,102063.34
2018-05-21T03:34:59.513Z,102067.41
2018-05-21T03:36:04.617Z,102067.85
2018-05-21T03:37:09.075Z,102070.14
2018-05-21T03:38:13.170Z,102066.22
2018-05-21T03:39:18.329Z,102068.56
2018-05-21T03:40:22.451Z,102063.73
2018-05-21T03:41:26.760Z,102064.99
2018-05-21T03:42:32.671Z,102068.39
2018-05-21T03:43:36.855Z,102071.95
2018-05-21T03:44:41.024Z,102063.36
2018-05-21T03:45:49.459Z,102068.30
2018-05-21T03:46:53.923Z,102070.92
2018-05-21T03:47:58.817Z,102069.17
2018-05-21T03:49:02.973Z,102069.94
2018-05-21T03:50:08.037Z,102076.19
2018-05-21T03:51:12.167Z,102068.94
2018-05-21T03:52:16.342Z,102072.19
2018-05-21T03:53:20.483Z,102071.17
2018-05-21T03:54:24.584Z,102076.08
2018-05-21T03:55:28.770Z,102074.80
2018-05-21T03:56:33.235Z,102077.48
2018-05-21T03:57:37.349Z,102074.69
2018-05-21T04:01:54.919Z,102075.59
2018-05-21T04:03:30.968Z,102080.00
2018-05-21T04:04:35.262Z,102078.33
2018-05-21T04:05:39.573Z,102068.17
2018-05-21T04:06:43.943Z,102075.69
2018-05-21T04:07:48.054Z,102075.59
2018-05-21T04:08:52.558Z,102075.19
2018-05-21T04:09:57.584Z,102078.67
2018-05-21T04:11:02.573Z,102075.49
2018-05-21T04:12:06.914Z,102081.48
2018-05-21T04:13:11.241Z,102079.70
2018-05-21T04:14:15.344Z,102080.05
2018-05-21T04:15:19.536Z,102074.25
2018-05-21T04:16:23.946Z,102077.30
2018-05-21T04:17:28.059Z,102074.94
2018-05-21T04:18:32.160Z,102078.45
2018-05-21T04:19:36.271Z,102073.59
2018-05-21T04:20:40.470Z,102080.23
2018-05-21T04:21:44.576Z,102082.53
2018-05-21T04:22:48.998Z,102079.38
2018-05-21T04:23:53.101Z,102080.23
2018-05-21T04:24:57.745Z,102082.95
2018-05-21T04:26:02.175Z,102076.34
2018-05-21T04:27:06.280Z,102083.48
2018-05-21T04:28:10.939Z,102079.29
2018-05-21T04:29:15.036Z,102076.92
2018-05-21T04:30:19.609Z,102078.96
2018-05-21T04:31:23.744Z,102079.64
2018-05-21T04:32:27.959Z,102079.09
2018-05-21T04:33:32.080Z,102079.09
2018-05-21T04:34:36.190Z,102077.53
2018-05-21T04:35:40.774Z,102075.77
2018-05-21T04:36:45.216Z,102078.28
2018-05-21T04:37:49.601Z,102082.70
2018-05-21T04:38:54.071Z,102076.48
2018-05-21T04:39:58.956Z,102070.08
2018-05-21T04:41:03.440Z,102067.55
2018-05-21T04:42:08.007Z,102065.05
2018-05-21T04:43:13.371Z,102062.59
2018-05-21T04:44:17.819Z,102064.73
2018-05-21T04:45:22.654Z,102066.46
2018-05-21T04:46:26.845Z,102074.95
2018-05-21T04:47:30.958Z,102077.80
2018-05-21T04:48:35.055Z,102074.17
2018-05-21T04:49:39.168Z,102069.06
2018-05-21T04:50:43.286Z,102069.83
2018-05-21T04:51:48.133Z,102063.28
2018-05-21T04:52:52.214Z,102063.89
2018-05-21T04:53:56.327Z,102062.94
2018-05-21T04:55:00.436Z,102063.22
2018-05-21T04:56:04.600Z,102060.77
2018-05-21T04:57:08.692Z,102060.86
2018-05-21T04:58:13.179Z,102064.80
2018-05-21T04:59:17.294Z,102061.41
2018-05-21T05:00:22.581Z,102062.52
2018-05-21T05:01:27.121Z,102056.97
2018-05-21T05:02:31.298Z,102062.23
2018-05-21T05:03:35.381Z,102058.48
2018-05-21T05:04:39.469Z,102058.76
2018-05-21T05:05:43.562Z,102056.06
2018-05-21T05:06:47.748Z,102059.70
2018-05-21T05:07:51.919Z,102052.80
2018-05-21T05:08:56.009Z,102052.26
2018-05-21T05:10:00.114Z,102049.66
2018-05-21T05:11:04.524Z,102050.89
2018-05-21T05:12:08.611Z,102050.87
2018-05-21T05:13:12.827Z,102050.64
2018-05-21T05:14:17.891Z,102048.00
2018-05-21T05:15:23.378Z,102052.11
2018-05-21T05:16:27.494Z,102044.98
2018-05-21T05:17:31.916Z,102043.55
2018-05-21T05:18:36.052Z,102041.03
2018-05-21T05:19:40.154Z,102046.42
2018-05-21T05:20:44.273Z,102042.70
2018-05-21T05:21:48.471Z,102053.08
2018-05-21T05:22:52.560Z,102051.39
2018-05-21T05:23:57.003Z,102052.62
2018-05-21T05:25:01.186Z,102048.16
2018-05-21T05:26:05.326Z,102047.75
2018-05-21T05:27:09.427Z,102049.77
2018-05-21T05:28:13.557Z,102050.02
2018-05-21T05:29:19.784Z,102044.85
2018-05-21T05:30:24.526Z,102047.91
2018-05-21T05:31:28.651Z,102044.01
2018-05-21T05:32:33.099Z,102050.80
2018-05-21T05:33:37.332Z,102046.70
2018-05-21T05:34:41.442Z,102047.47
2018-05-21T05:35:45.967Z,102051.77
2018-05-21T05:36:50.075Z,102046.87
2018-05-21T05:37:54.191Z,102044.58
2018-05-21T05:38:58.389Z,102045.14
2018-05-21T05:40:03.045Z,102045.67
2018-05-21T05:41:07.564Z,102046.46
2018-05-21T05:42:12.275Z,102040.84
2018-05-21T05:43:17.442Z,102044.73
2018-05-21T05:44:21.637Z,102045.02
2018-05-21T05:45:26.144Z,102038.20
2018-05-21T05:46:30.324Z,102036.80
2018-05-21T05:47:34.413Z,102033.95
2018-05-21T05:48:38.837Z,102034.19
2018-05-21T05:49:43.020Z,102036.06
2018-05-21T05:50:47.241Z,102039.47
2018-05-21T05:51:51.355Z,102042.22
2018-05-21T05:52:55.543Z,102035.77
2018-05-21T05:53:59.659Z,102039.08
2018-05-21T05:55:03.774Z,102043.17
2018-05-21T05:56:07.879Z,102043.52
2018-05-21T05:57:12.068Z,102039.75
2018-05-21T05:58:16.194Z,102036.70
2018-05-21T05:59:21.161Z,102042.94
2018-05-21T06:00:25.707Z,102043.80
2018-05-21T06:01:30.207Z,102042.35
2018-05-21T06:02:34.301Z,102044.72
2018-05-21T06:03:38.544Z,102038.20
2018-05-21T06:04:42.668Z,102038.13
2018-05-21T06:05:46.775Z,102037.70
2018-05-21T06:06:50.941Z,102040.82
2018-05-21T06:07:55.406Z,102046.32
2018-05-21T06:08:59.535Z,102039.56
2018-05-21T06:10:03.727Z,102045.73
2018-05-21T06:11:07.848Z,102039.15
2018-05-21T06:12:11.979Z,102042.70
2018-05-21T06:13:16.176Z,102051.74
2018-05-21T06:14:21.455Z,102039.36
2018-05-21T06:15:26.083Z,102044.81
2018-05-21T06:16:30.489Z,102039.87
2018-05-21T06:17:34.589Z,102040.42
2018-05-21T06:18:38.711Z,102047.08
2018-05-21T06:19:42.875Z,102035.87
2018-05-21T06:20:47.312Z,102035.33
2018-05-21T06:21:51.448Z,102038.05
2018-05-21T06:22:55.663Z,102041.86
2018-05-21T06:23:59.857Z,102039.34
2018-05-21T06:25:04.057Z,102038.88
2018-05-21T06:26:08.541Z,102036.02
2018-05-21T06:27:13.595Z,102034.48
2018-05-21T06:28:17.725Z,102030.17
2018-05-21T06:29:22.470Z,102031.06
2018-05-21T06:30:26.672Z,102038.68
2018-05-21T06:31:31.195Z,102032.08
2018-05-21T06:32:35.611Z,102039.98
2018-05-21T06:33:39.757Z,102032.84
2018-05-21T06:34:43.849Z,102027.84
2018-05-21T06:35:47.945Z,102032.09
2018-05-21T06:36:52.164Z,102025.75
2018-05-21T06:37:56.294Z,102025.17
2018-05-21T06:39:00.749Z,102028.95
2018-05-21T06:40:04.961Z,102028.22
2018-05-21T06:41:09.104Z,102030.61
2018-05-21T06:42:14.589Z,102026.25
2018-05-21T06:43:18.910Z,102027.13
2018-05-21T06:44:23.128Z,102027.66
2018-05-21T06:45:27.494Z,102027.72
2018-05-21T06:46:31.596Z,102029.47
2018-05-21T06:47:35.776Z,102030.55
2018-05-21T06:48:39.921Z,102028.91
2018-05-21T06:49:44.031Z,102029.46
2018-05-21T06:50:48.111Z,102032.95
2018-05-21T06:51:52.306Z,102035.77
2018-05-21T06:52:56.821Z,102033.34
2018-05-21T06:54:00.942Z,102030.25
2018-05-21T06:55:05.218Z,102030.26
2018-05-21T06:56:09.340Z,102024.77
2018-05-21T06:57:14.797Z,102029.10
2018-05-21T06:58:19.852Z,102026.31
2018-05-21T06:59:23.994Z,102032.75
2018-05-21T07:00:28.373Z,102031.22
2018-05-21T07:01:32.795Z,102026.66
2018-05-21T07:02:37.633Z,102029.91
2018-05-21T07:03:41.741Z,102033.44
2018-05-21T07:04:45.964Z,102034.34
2018-05-21T07:05:50.093Z,102036.84
2018-05-21T07:06:54.189Z,102032.68
2018-05-21T07:07:58.454Z,102029.32
2018-05-21T07:09:02.980Z,102032.34
2018-05-21T07:10:07.098Z,102033.86
2018-05-21T07:11:11.196Z,102030.42
2018-05-21T07:12:15.421Z,102028.33
2018-05-21T07:13:20.429Z,102029.89
2018-05-21T07:14:24.513Z,102026.15
2018-05-21T07:15:29.063Z,102026.68
2018-05-21T07:16:33.456Z,102025.05
2018-05-21T07:17:37.580Z,102023.92
2018-05-21T07:18:41.775Z,102024.53
2018-05-21T07:19:45.893Z,102024.59
2018-05-21T07:20:50.099Z,102019.09
2018-05-21T07:21:54.550Z,102013.96
2018-05-21T07:22:58.645Z,102015.32
2018-05-21T07:24:02.866Z,102014.65
2018-05-21T07:25:07.126Z,102011.39
2018-05-21T07:26:11.834Z,102009.40
2018-05-21T07:27:15.937Z,102012.14
2018-05-21T07:28:20.474Z,102009.55
2018-05-21T07:29:24.584Z,102001.06
2018-05-21T07:30:29.039Z,101999.37
2018-05-21T07:31:33.261Z,101993.78
2018-05-21T07:32:37.371Z,102004.88
2018-05-21T07:33:41.967Z,101998.78
2018-05-21T07:34:46.657Z,101989.36
2018-05-21T07:35:50.797Z,102002.77
2018-05-21T07:36:55.022Z,102004.05
2018-05-21T07:37:59.328Z,101998.30
2018-05-21T07:39:03.842Z,102001.53
2018-05-21T07:40:07.986Z,102001.41
2018-05-21T07:41:12.081Z,102001.66
2018-05-21T07:42:16.219Z,102001.88
2018-05-21T07:43:21.011Z,102007.03
2018-05-21T07:44:25.120Z,101992.34
2018-05-21T07:45:29.622Z,101994.35
2018-05-21T07:46:33.739Z,101990.56
2018-05-21T07:47:38.009Z,101988.26
2018-05-21T07:48:42.376Z,101984.47
2018-05-21T07:49:46.558Z,101983.16
2018-05-21T07:50:50.720Z,101987.97
2018-05-21T07:51:55.161Z,101985.02
2018-05-21T07:52:59.352Z,101984.85
2018-05-21T07:54:03.464Z,101981.33
2018-05-21T07:55:12.299Z,101983.23
2018-05-21T07:56:18.407Z,101979.44
2018-05-21T07:57:23.138Z,101981.66
2018-05-21T07:58:27.626Z,101984.48
2018-05-21T07:59:31.809Z,101981.09
2018-05-21T08:00:36.117Z,101979.18
2018-05-21T08:01:40.261Z,101980.79
2018-05-21T08:02:44.369Z,101974.45
2018-05-21T08:03:48.562Z,101972.66
2018-05-21T08:04:52.997Z,101979.43
2018-05-21T08:05:57.272Z,101971.36
2018-05-21T08:07:01.423Z,101972.47
2018-05-21T08:08:05.607Z,101964.38
2018-05-21T08:09:09.755Z,101971.73
2018-05-21T08:10:13.905Z,101965.15
2018-05-21T08:11:18.117Z,101968.10
2018-05-21T08:12:23.209Z,101968.44
2018-05-21T08:13:27.408Z,101953.83
2018-05-21T08:14:31.566Z,101964.12
2018-05-21T08:15:36.121Z,101969.34
2018-05-21T08:16:40.432Z,101968.14
2018-05-21T08:17:44.944Z,101964.11
2018-05-21T08:18:49.097Z,101962.34
2018-05-21T08:19:53.427Z,101966.05
2018-05-21T08:20:57.560Z,101959.08
2018-05-21T08:22:01.798Z,101955.97
2018-05-21T08:23:05.996Z,101954.75
2018-05-21T08:24:10.162Z,101956.44
2018-05-21T08:25:14.456Z,101961.41
2018-05-21T08:26:18.622Z,101948.98
2018-05-21T08:27:23.218Z,101948.06
2018-05-21T08:28:27.248Z,101950.73
2018-05-21T08:29:31.350Z,101951.02
2018-05-21T08:30:35.516Z,101948.31
2018-05-21T08:31:39.764Z,101947.53
2018-05-21T08:32:43.933Z,101947.63
2018-05-21T08:33:48.382Z,101954.63
2018-05-21T08:34:52.509Z,101934.61
2018-05-21T08:35:56.709Z,101940.25
2018-05-21T08:37:00.852Z,101947.94
2018-05-21T08:38:04.996Z,101942.57
2018-05-21T08:39:09.237Z,101937.27
2018-05-21T08:40:13.712Z,101939.42
2018-05-21T08:41:18.552Z,101941.49
2018-05-21T08:42:24.389Z,101940.45
2018-05-21T08:43:28.526Z,101937.01
2018-05-21T08:44:32.662Z,101941.63
2018-05-21T08:45:37.125Z,101938.31
2018-05-21T08:46:41.822Z,101932.44
2018-05-21T08:47:46.475Z,101932.20
2018-05-21T08:48:50.668Z,101933.30
2018-05-21T08:49:54.737Z,101928.78
2018-05-21T08:50:59.007Z,101921.31
2018-05-21T08:52:03.129Z,101928.70
2018-05-21T08:53:07.633Z,101919.18
2018-05-21T08:54:11.748Z,101928.78
2018-05-21T08:55:15.962Z,101926.41
2018-05-21T08:56:20.690Z,101924.20
2018-05-21T08:57:24.809Z,101920.59
2018-05-21T08:58:29.668Z,101921.22
2018-05-21T08:59:34.091Z,101919.14
2018-05-21T09:00:38.562Z,101914.45
2018-05-21T09:01:42.941Z,101923.37
2018-05-21T09:02:47.099Z,101910.03
2018-05-21T09:03:51.208Z,101920.14
2018-05-21T09:04:55.413Z,101920.46
2018-05-21T09:05:59.859Z,101913.80
2018-05-21T09:07:04.061Z,101914.92
2018-05-21T09:08:08.206Z,101912.99
2018-05-21T09:09:12.346Z,101904.11
2018-05-21T09:10:16.832Z,101918.65
2018-05-21T09:11:22.009Z,101912.42
2018-05-21T09:12:26.608Z,101904.84
2018-05-21T09:13:30.959Z,101905.97
2018-05-21T09:14:35.159Z,101907.34
2018-05-21T09:15:39.278Z,101900.24
2018-05-21T09:16:43.454Z,101909.16
2018-05-21T09:17:47.978Z,101910.03
2018-05-21T09:18:52.576Z,101895.98
2018-05-21T09:19:56.713Z,101895.88
2018-05-21T09:21:00.895Z,101893.10
2018-05-21T09:22:05.110Z,101889.98
2018-05-21T09:23:09.299Z,101900.73
2018-05-21T09:24:13.835Z,101900.33
2018-05-21T09:25:19.163Z,101896.68
2018-05-21T09:26:24.085Z,101890.41
2018-05-21T09:27:29.206Z,101892.68
2018-05-21T09:28:33.445Z,101878.84
2018-05-21T09:29:37.590Z,101882.99
2018-05-21T09:30:42.553Z,101885.87
2018-05-21T09:31:46.852Z,101883.98
2018-05-21T09:32:51.369Z,101886.16
2018-05-21T09:33:55.576Z,101881.63
2018-05-21T09:34:59.715Z,101887.45
2018-05-21T09:36:03.928Z,101883.21
2018-05-21T09:37:08.106Z,101882.08
2018-05-21T09:38:12.281Z,101877.03
2018-05-21T09:39:16.426Z,101880.67
2018-05-21T09:40:20.850Z,101892.91
2018-05-21T09:41:24.957Z,101884.33
2018-05-21T09:42:29.085Z,101873.55
2018-05-21T09:43:33.571Z,101876.81
2018-05-21T09:44:37.813Z,101877.48
2018-05-21T09:45:42.117Z,101881.83
2018-05-21T09:46:46.740Z,101873.14
2018-05-21T09:47:50.851Z,101861.31
2018-05-21T09:48:55.016Z,101872.14
2018-05-21T09:49:59.553Z,101870.45
2018-05-21T09:51:03.716Z,101870.76
2018-05-21T09:52:07.876Z,101868.94
2018-05-21T09:53:12.025Z,101866.84
2018-05-21T09:54:16.146Z,101865.56
2018-05-21T09:55:21.974Z,101856.92
2018-05-21T09:56:26.464Z,101861.94
2018-05-21T09:57:30.577Z,101854.25
2018-05-21T09:58:34.763Z,101871.25
2018-05-21T09:59:38.894Z,101865.41
2018-05-21T10:00:43.233Z,101862.72
2018-05-21T10:01:48.144Z,101861.91
2018-05-21T10:02:52.606Z,101856.99
2018-05-21T10:03:56.835Z,101853.39
2018-05-21T10:05:00.965Z,101865.33
2018-05-21T10:06:05.141Z,101850.44
2018-05-21T10:07:09.441Z,101850.52
2018-05-21T10:08:13.941Z,101849.50
2018-05-21T10:09:18.093Z,101842.16
2018-05-21T10:10:23.127Z,101850.24
2018-05-21T10:11:27.265Z,101843.41
2018-05-21T10:12:31.401Z,101843.56
2018-05-21T10:13:35.638Z,101840.72
2018-05-21T10:14:40.288Z,101844.53
2018-05-21T10:15:44.781Z,101830.28
2018-05-21T10:16:49.221Z,101843.39
2018-05-21T10:17:53.340Z,101839.63
2018-05-21T10:18:57.570Z,101835.23
2018-05-21T10:20:01.736Z,101831.16
2018-05-21T10:21:06.164Z,101832.92
2018-05-21T10:22:10.303Z,101829.53
2018-05-21T10:23:14.433Z,101824.99
2018-05-21T10:24:18.646Z,101834.41
2018-05-21T10:25:22.996Z,101824.56
2018-05-21T10:26:27.684Z,101827.05
2018-05-21T10:27:31.787Z,101825.55
2018-05-21T10:28:36.008Z,101817.70
2018-05-21T10:29:40.152Z,101818.39
2018-05-21T10:30:44.503Z,101830.23
2018-05-21T10:31:48.634Z,101823.16
2018-05-21T10:32:52.764Z,101818.77
2018-05-21T10:33:57.301Z,101815.08
2018-05-21T10:35:01.467Z,101801.00
2018-05-21T10:36:05.669Z,101806.05
2018-05-21T10:37:09.995Z,101800.00
2018-05-21T10:38:14.183Z,101815.45
2018-05-21T10:39:19.272Z,101805.91
2018-05-21T10:40:23.776Z,101802.73
2018-05-21T10:41:28.581Z,101797.29
2018-05-21T10:42:32.726Z,101807.36
2018-05-21T10:43:36.914Z,101803.41
2018-05-21T10:44:41.051Z,101807.28
2018-05-21T10:45:45.382Z,101806.29
2018-05-21T10:46:50.089Z,101782.57
2018-05-21T10:47:54.545Z,101804.61
2018-05-21T10:48:58.909Z,101803.05
2018-05-21T10:50:03.025Z,101805.94
2018-05-21T10:51:07.215Z,101812.66
2018-05-21T10:52:11.344Z,101792.75
2018-05-21T10:53:15.623Z,101798.64
2018-05-21T10:54:19.964Z,101789.97
2018-05-21T10:55:24.193Z,101797.11
2018-05-21T10:56:29.032Z,101789.90
2018-05-21T10:57:33.283Z,101794.48
2018-05-21T10:58:37.522Z,101788.75
2018-05-21T10:59:41.724Z,101788.92
2018-05-21T11:00:46.228Z,101797.06
2018-05-21T11:01:50.389Z,101793.23
2018-05-21T11:02:54.974Z,101792.75
2018-05-21T11:03:59.182Z,101784.97
2018-05-21T11:05:03.325Z,101790.06
2018-05-21T11:06:07.600Z,101790.47
2018-05-21T11:07:11.837Z,101792.04
2018-05-21T11:08:15.994Z,101774.62
2018-05-21T11:09:20.457Z,101780.73
2018-05-21T11:10:24.590Z,101789.57
2018-05-21T11:11:28.705Z,101782.50
2018-05-21T11:12:33.778Z,101776.66
2018-05-21T11:13:38.820Z,101770.89
2018-05-21T11:14:43.936Z,101759.50
2018-05-21T11:15:48.573Z,101758.84
2018-05-21T11:16:52.792Z,101759.03
2018-05-21T11:17:56.956Z,101754.06
2018-05-21T11:19:01.098Z,101765.25
2018-05-21T11:20:05.274Z,101757.64
2018-05-21T11:21:09.384Z,101768.73
2018-05-21T11:22:13.890Z,101744.91
2018-05-21T11:23:18.024Z,101748.86
2018-05-21T11:24:22.313Z,101760.08
2018-05-21T11:25:26.448Z,101756.70
2018-05-21T11:26:31.413Z,101750.56
2018-05-21T11:27:35.608Z,101760.52
2018-05-21T11:28:40.640Z,101739.22
2018-05-21T11:29:44.784Z,101748.21
2018-05-21T11:30:49.399Z,101746.16
2018-05-21T11:31:54.317Z,101745.65
2018-05-21T11:32:58.625Z,101750.98
2018-05-21T11:34:03.500Z,101744.53
2018-05-21T11:35:07.802Z,101736.22
2018-05-21T11:36:11.941Z,101740.68
2018-05-21T11:37:16.150Z,101729.06
2018-05-21T11:38:20.384Z,101732.63
2018-05-21T11:39:24.698Z,101737.12
2018-05-21T11:40:28.867Z,101731.97
2018-05-21T11:41:33.502Z,101700.28
2018-05-21T11:42:38.344Z,101724.90
2018-05-21T11:43:42.508Z,101729.72
2018-05-21T11:44:46.667Z,101729.20
2018-05-21T11:45:51.309Z,101734.02
2018-05-21T11:46:55.532Z,101719.67
2018-05-21T11:47:59.663Z,101720.55
2018-05-21T11:49:03.799Z,101714.98
2018-05-21T11:50:08.042Z,101717.58
2018-05-21T11:51:12.165Z,101721.18
2018-05-21T11:52:16.672Z,101714.02
2018-05-21T11:53:20.855Z,101719.13
2018-05-21T11:54:25.111Z,101707.63
2018-05-21T11:55:29.290Z,101706.37
2018-05-21T11:56:33.903Z,101707.41
2018-05-21T11:57:38.738Z,101701.18
2018-05-21T11:58:42.879Z,101701.18
2018-05-21T11:59:47.067Z,101700.33
2018-05-21T12:00:51.525Z,101711.14
2018-05-21T12:01:55.930Z,101703.08
2018-05-21T12:03:00.088Z,101699.48
2018-05-21T12:04:04.318Z,101696.67
2018-05-21T12:05:08.581Z,101695.44
2018-05-21T12:06:12.745Z,101700.42
2018-05-21T12:07:16.999Z,101693.58
2018-05-21T12:08:21.161Z,101702.17
2018-05-21T12:09:25.674Z,101690.78
2018-05-21T12:10:29.895Z,101693.17
2018-05-21T12:11:34.795Z,101684.45
2018-05-21T12:12:38.972Z,101670.02
2018-05-21T12:13:43.972Z,101696.47
2018-05-21T12:14:48.179Z,101683.92
2018-05-21T12:15:53.053Z,101692.80
2018-05-21T12:16:57.174Z,101688.13
2018-05-21T12:18:01.329Z,101682.01
2018-05-21T12:19:05.444Z,101680.19